createdAt,value
2023-05-25T00:01:01.701Z,10.16
2023-05-25T00:01:51.188Z,9.78
2023-05-25T00:02:51.365Z,10.47
2023-05-25T00:03:51.267Z,10.22
2023-05-25T00:04:51.207Z,9.65
2023-05-25T00:05:51.216Z,8.98
2023-05-25T00:06:51.212Z,10.68
2023-05-25T00:07:51.220Z,9.91
2023-05-25T00:08:51.238Z,9.78
2023-05-25T00:09:51.245Z,10.12
2023-05-25T00:10:51.265Z,9.44
2023-05-25T00:11:51.307Z,10.58
2023-05-25T00:12:51.257Z,10.10
2023-05-25T00:13:51.256Z,9.54
2023-05-25T00:14:51.265Z,9.38
2023-05-25T00:15:51.271Z,9.66
2023-05-25T00:16:51.304Z,9.16
2023-05-25T00:17:51.303Z,9.42
2023-05-25T00:18:51.300Z,9.71
2023-05-25T00:19:51.371Z,9.20
2023-05-25T00:20:51.313Z,9.40
2023-05-25T00:21:51.338Z,9.86
2023-05-25T00:22:51.336Z,9.94
2023-05-25T00:23:51.347Z,9.55
2023-05-25T00:24:51.360Z,9.79
2023-05-25T00:25:51.361Z,9.40
2023-05-25T00:26:51.384Z,9.57
2023-05-25T00:27:51.404Z,9.68
2023-05-25T00:28:51.384Z,9.89
2023-05-25T00:29:51.379Z,8.98
2023-05-25T00:30:51.437Z,10.03
2023-05-25T00:31:51.387Z,9.56
2023-05-25T00:32:51.415Z,9.10
2023-05-25T00:33:51.401Z,9.08
2023-05-25T00:34:51.406Z,9.56
2023-05-25T00:35:51.401Z,9.93
2023-05-25T00:36:51.430Z,9.27
2023-05-25T00:37:51.409Z,8.53
2023-05-25T00:38:51.434Z,9.27
2023-05-25T00:39:51.418Z,10.18
2023-05-25T00:40:51.416Z,9.42
2023-05-25T00:41:51.436Z,8.73
2023-05-25T00:42:51.432Z,9.69
2023-05-25T00:43:51.553Z,9.00
2023-05-25T00:44:51.442Z,9.61
2023-05-25T00:45:51.455Z,9.15
2023-05-25T00:46:51.572Z,9.35
2023-05-25T00:47:51.539Z,9.04
2023-05-25T00:48:51.491Z,7.98
2023-05-25T00:49:51.482Z,9.68
2023-05-25T00:50:51.491Z,9.07
2023-05-25T00:51:51.508Z,9.25
2023-05-25T00:52:51.515Z,9.68
2023-05-25T00:53:51.522Z,8.45
2023-05-25T00:54:51.531Z,8.40
2023-05-25T00:55:51.543Z,9.36
2023-05-25T00:56:51.577Z,8.26
2023-05-25T00:57:51.612Z,8.73
2023-05-25T00:58:51.751Z,9.26
2023-05-25T00:59:51.724Z,8.88
2023-05-25T01:00:51.717Z,8.84
2023-05-25T01:01:51.755Z,8.77
2023-05-25T01:02:51.832Z,9.30
2023-05-25T01:03:51.842Z,8.50
2023-05-25T01:04:51.803Z,9.42
2023-05-25T01:05:51.820Z,8.14
2023-05-25T01:06:51.860Z,9.09
2023-05-25T01:07:51.937Z,8.76
2023-05-25T01:08:51.926Z,8.20
2023-05-25T01:09:51.950Z,8.51
2023-05-25T01:10:51.975Z,9.17
2023-05-25T01:11:52.006Z,8.20
2023-05-25T01:12:52.019Z,8.58
2023-05-25T01:13:52.037Z,8.67
2023-05-25T01:14:52.064Z,8.57
2023-05-25T01:15:52.153Z,8.74
2023-05-25T01:16:52.212Z,8.55
2023-05-25T01:17:52.248Z,8.48
2023-05-25T01:18:52.767Z,8.35
2023-05-25T01:20:08.850Z,8.69
2023-05-25T01:20:52.705Z,8.70
2023-05-25T01:21:52.650Z,8.60
2023-05-25T01:22:52.650Z,8.91
2023-05-25T01:23:52.677Z,8.11
2023-05-25T01:24:52.658Z,8.34
2023-05-25T01:25:52.671Z,8.05
2023-05-25T01:26:52.655Z,8.12
2023-05-25T01:27:52.651Z,8.63
2023-05-25T01:28:52.670Z,8.31
2023-05-25T01:29:52.650Z,8.71
2023-05-25T01:30:52.663Z,7.57
2023-05-25T01:31:52.953Z,8.35
2023-05-25T01:32:52.721Z,8.08
2023-05-25T01:33:52.663Z,8.37
2023-05-25T01:34:52.659Z,7.94
2023-05-25T01:35:52.671Z,7.74
2023-05-25T01:36:52.650Z,8.57
2023-05-25T01:37:52.652Z,8.63
2023-05-25T01:38:52.658Z,8.50
2023-05-25T01:39:52.653Z,9.32
2023-05-25T01:40:52.653Z,7.98
2023-05-25T01:41:52.650Z,7.99
2023-05-25T01:42:52.652Z,7.83
2023-05-25T01:43:52.655Z,7.40
2023-05-25T01:44:52.653Z,8.38
2023-05-25T01:45:52.717Z,8.16
2023-05-25T01:46:52.650Z,8.41
2023-05-25T01:47:52.758Z,7.40
2023-05-25T01:48:52.648Z,8.07
2023-05-25T01:49:52.671Z,7.51
2023-05-25T01:50:52.644Z,7.69
2023-05-25T01:51:52.743Z,8.37
2023-05-25T01:52:52.649Z,7.86
2023-05-25T01:53:52.659Z,8.19
2023-05-25T01:54:52.674Z,7.53
2023-05-25T01:55:52.647Z,8.22
2023-05-25T01:56:52.654Z,8.12
2023-05-25T01:57:52.721Z,6.92
2023-05-25T01:58:52.651Z,7.90
2023-05-25T01:59:52.652Z,8.02
2023-05-25T02:00:52.657Z,8.26
2023-05-25T02:01:53.433Z,7.71
2023-05-25T02:02:52.785Z,7.10
2023-05-25T02:03:52.782Z,8.13
2023-05-25T02:04:52.656Z,7.45
2023-05-25T02:05:52.654Z,8.10
2023-05-25T02:06:52.727Z,7.47
2023-05-25T02:07:52.648Z,8.14
2023-05-25T02:08:52.658Z,7.92
2023-05-25T02:09:52.672Z,7.94
2023-05-25T02:10:52.663Z,7.41
2023-05-25T02:11:52.674Z,8.12
2023-05-25T02:12:52.689Z,8.30
2023-05-25T02:13:52.684Z,7.84
2023-05-25T02:14:52.691Z,7.60
2023-05-25T02:15:52.816Z,7.72
2023-05-25T02:16:52.720Z,6.94
2023-05-25T02:17:52.809Z,7.88
2023-05-25T02:18:52.766Z,7.45
2023-05-25T02:19:52.821Z,7.73
2023-05-25T02:20:52.782Z,8.05
2023-05-25T02:21:52.807Z,7.97
2023-05-25T02:22:52.810Z,7.90
2023-05-25T02:23:52.823Z,7.51
2023-05-25T02:24:52.848Z,6.81
2023-05-25T02:25:52.874Z,7.43
2023-05-25T02:26:52.894Z,7.80
2023-05-25T02:27:52.886Z,6.77
2023-05-25T02:28:52.905Z,6.59
2023-05-25T02:29:52.923Z,7.02
2023-05-25T02:30:53.586Z,8.13
2023-05-25T02:31:53.021Z,7.89
2023-05-25T02:32:53.025Z,7.32
2023-05-25T02:33:53.013Z,7.07
2023-05-25T02:34:53.035Z,7.16
2023-05-25T02:35:53.087Z,6.97
2023-05-25T02:36:53.056Z,7.21
2023-05-25T02:37:53.072Z,7.43
2023-05-25T02:38:53.085Z,7.45
2023-05-25T02:39:53.107Z,7.21
2023-05-25T02:40:53.123Z,7.40
2023-05-25T02:41:53.145Z,7.12
2023-05-25T02:42:53.558Z,7.49
2023-05-25T02:43:53.609Z,7.41
2023-05-25T02:44:53.604Z,6.83
2023-05-25T02:45:53.588Z,6.60
2023-05-25T02:46:53.632Z,6.74
2023-05-25T02:47:53.683Z,7.89
2023-05-25T02:48:53.589Z,6.19
2023-05-25T02:49:53.590Z,7.10
2023-05-25T02:50:53.586Z,7.54
2023-05-25T02:51:53.664Z,7.53
2023-05-25T02:52:53.592Z,6.62
2023-05-25T02:53:53.586Z,6.81
2023-05-25T02:54:53.596Z,7.07
2023-05-25T02:55:53.585Z,7.48
2023-05-25T02:56:53.600Z,6.72
2023-05-25T02:57:53.591Z,6.95
2023-05-25T02:58:53.605Z,6.81
2023-05-25T02:59:53.586Z,6.58
2023-05-25T03:00:53.593Z,7.38
2023-05-25T03:01:53.585Z,7.14
2023-05-25T03:02:53.631Z,6.97
2023-05-25T03:03:53.638Z,6.18
2023-05-25T03:04:53.655Z,7.14
2023-05-25T03:05:53.641Z,7.02
2023-05-25T03:06:53.665Z,6.94
2023-05-25T03:07:53.708Z,7.04
2023-05-25T03:08:53.718Z,6.49
2023-05-25T03:09:53.733Z,6.66
2023-05-25T03:10:53.746Z,6.50
2023-05-25T03:11:53.776Z,6.86
2023-05-25T03:12:53.791Z,6.78
2023-05-25T03:13:53.813Z,6.48
2023-05-25T03:14:53.825Z,7.34
2023-05-25T03:15:53.833Z,6.49
2023-05-25T03:16:54.423Z,6.61
2023-05-25T03:17:53.941Z,6.26
2023-05-25T03:18:53.886Z,6.76
2023-05-25T03:19:53.924Z,6.78
2023-05-25T03:20:53.924Z,6.82
2023-05-25T03:21:53.940Z,6.71
2023-05-25T03:22:53.998Z,6.46
2023-05-25T03:23:54.011Z,6.69
2023-05-25T03:24:54.005Z,6.76
2023-05-25T03:25:54.028Z,6.78
2023-05-25T03:26:54.056Z,6.25
2023-05-25T03:27:54.103Z,6.43
2023-05-25T03:28:54.589Z,6.30
2023-05-25T03:29:54.087Z,6.40
2023-05-25T03:30:54.116Z,7.15
2023-05-25T03:31:54.169Z,7.17
2023-05-25T03:32:54.186Z,6.69
2023-05-25T03:33:54.173Z,6.91
2023-05-25T03:34:54.199Z,7.06
2023-05-25T03:35:54.219Z,7.01
2023-05-25T03:36:54.280Z,7.01
2023-05-25T03:37:54.265Z,6.46
2023-05-25T03:38:54.312Z,6.69
2023-05-25T03:39:54.354Z,6.53
2023-05-25T03:40:54.339Z,6.37
2023-05-25T03:41:54.358Z,6.65
2023-05-25T03:42:54.382Z,6.64
2023-05-25T03:43:54.420Z,6.32
2023-05-25T03:44:54.429Z,6.91
2023-05-25T03:45:54.471Z,5.79
2023-05-25T03:46:54.476Z,6.66
2023-05-25T03:47:54.512Z,6.43
2023-05-25T03:48:54.521Z,6.24
2023-05-25T03:49:54.536Z,6.30
2023-05-25T03:50:54.560Z,6.59
2023-05-25T03:51:54.610Z,6.62
2023-05-25T03:52:54.616Z,6.16
2023-05-25T03:53:54.637Z,5.87
2023-05-25T03:54:54.665Z,6.05
2023-05-25T03:55:54.713Z,6.29
2023-05-25T03:56:54.707Z,6.17
2023-05-25T03:57:54.742Z,5.80
2023-05-25T03:58:54.792Z,6.09
2023-05-25T03:59:54.799Z,6.38
2023-05-25T04:00:54.816Z,6.29
2023-05-25T04:01:54.848Z,5.46
2023-05-25T04:02:54.921Z,6.54
2023-05-25T04:03:55.035Z,6.72
2023-05-25T04:04:54.983Z,6.36
2023-05-25T04:05:54.932Z,5.75
2023-05-25T04:06:54.959Z,6.58
2023-05-25T04:07:54.979Z,5.80
2023-05-25T04:08:55.001Z,5.91
2023-05-25T04:09:55.022Z,5.67
2023-05-25T04:10:55.042Z,6.11
2023-05-25T04:11:55.098Z,6.54
2023-05-25T04:12:55.080Z,5.81
2023-05-25T04:13:55.129Z,6.58
2023-05-25T04:14:55.130Z,5.98
2023-05-25T04:15:55.158Z,6.31
2023-05-25T04:16:55.178Z,5.79
2023-05-25T04:17:55.247Z,5.80
2023-05-25T04:18:55.220Z,5.80
2023-05-25T04:19:55.283Z,6.23
2023-05-25T04:20:55.270Z,6.45
2023-05-25T04:21:55.319Z,6.49
2023-05-25T04:22:55.312Z,5.57
2023-05-25T04:23:55.353Z,5.82
2023-05-25T04:24:55.363Z,6.09
2023-05-25T04:25:55.378Z,5.50
2023-05-25T04:26:55.394Z,6.33
2023-05-25T04:27:55.440Z,6.14
2023-05-25T04:28:55.451Z,6.21
2023-05-25T04:29:55.472Z,5.59
2023-05-25T04:30:55.467Z,5.35
2023-05-25T04:31:55.502Z,6.20
2023-05-25T04:32:55.580Z,5.76
2023-05-25T04:33:55.533Z,5.68
2023-05-25T04:34:55.548Z,5.96
2023-05-25T04:35:55.569Z,6.07
2023-05-25T04:36:55.590Z,6.07
2023-05-25T04:37:55.615Z,6.61
2023-05-25T04:38:55.642Z,5.49
2023-05-25T04:39:55.655Z,5.81
2023-05-25T04:40:55.680Z,6.02
2023-05-25T04:41:55.685Z,6.74
2023-05-25T04:42:55.702Z,5.87
2023-05-25T04:44:06.991Z,6.05
2023-05-25T04:44:55.811Z,5.36
2023-05-25T04:45:55.769Z,5.39
2023-05-25T04:46:55.761Z,6.55
2023-05-25T04:47:55.913Z,6.31
2023-05-25T04:48:55.770Z,5.60
2023-05-25T04:49:55.786Z,5.73
2023-05-25T04:50:55.802Z,5.51
2023-05-25T04:51:55.806Z,5.81
2023-05-25T04:52:55.812Z,5.81
2023-05-25T04:53:55.828Z,5.44
2023-05-25T04:54:55.832Z,5.51
2023-05-25T04:55:55.846Z,5.63
2023-05-25T04:56:55.848Z,5.66
2023-05-25T04:57:55.864Z,6.41
2023-05-25T04:58:55.873Z,5.81
2023-05-25T04:59:55.905Z,5.80
2023-05-25T05:00:55.912Z,5.71
2023-05-25T05:01:55.939Z,6.25
2023-05-25T05:02:56.007Z,5.34
2023-05-25T05:03:55.942Z,5.76
2023-05-25T05:04:55.894Z,5.60
2023-05-25T05:05:55.914Z,5.54
2023-05-25T05:06:58.060Z,5.78
2023-05-25T05:07:55.920Z,5.79
2023-05-25T05:08:55.913Z,5.54
2023-05-25T05:09:55.921Z,5.22
2023-05-25T05:10:55.918Z,6.00
2023-05-25T05:11:55.919Z,5.45
2023-05-25T05:12:55.931Z,5.90
2023-05-25T05:13:55.932Z,5.50
2023-05-25T05:14:55.929Z,5.19
2023-05-25T05:15:55.963Z,6.57
2023-05-25T05:16:55.991Z,6.08
2023-05-25T05:17:55.982Z,5.62
2023-05-25T05:18:55.955Z,5.70
2023-05-25T05:19:55.986Z,5.44
2023-05-25T05:20:55.967Z,5.43
2023-05-25T05:21:55.970Z,5.61
2023-05-25T05:22:55.977Z,5.41
2023-05-25T05:23:56.135Z,5.73
2023-05-25T05:24:56.000Z,5.78
2023-05-25T05:25:56.018Z,5.17
2023-05-25T05:26:58.977Z,5.32
2023-05-25T05:27:56.017Z,5.44
2023-05-25T05:28:56.030Z,5.16
2023-05-25T05:29:56.052Z,5.40
2023-05-25T05:30:56.035Z,5.66
2023-05-25T05:31:57.356Z,4.73
2023-05-25T05:32:56.117Z,5.68
2023-05-25T05:33:56.115Z,5.74
2023-05-25T05:34:56.094Z,4.96
2023-05-25T05:35:56.074Z,5.62
2023-05-25T05:36:58.591Z,5.67
2023-05-25T05:37:56.080Z,5.28
2023-05-25T05:38:56.105Z,5.00
2023-05-25T05:39:56.090Z,5.67
2023-05-25T05:40:56.091Z,5.77
2023-05-25T05:41:57.091Z,4.94
2023-05-25T05:42:56.101Z,5.33
2023-05-25T05:43:56.132Z,5.16
2023-05-25T05:44:56.143Z,5.06
2023-05-25T05:45:56.151Z,5.29
2023-05-25T05:46:56.248Z,4.81
2023-05-25T05:47:56.271Z,4.95
2023-05-25T05:48:56.643Z,4.95
2023-05-25T05:49:56.204Z,5.26
2023-05-25T05:50:56.211Z,5.40
2023-05-25T05:52:03.697Z,5.28
2023-05-25T05:52:56.285Z,4.77
2023-05-25T05:53:57.639Z,4.75
2023-05-25T05:55:59.472Z,4.72
2023-05-25T05:57:28.081Z,5.10
2023-05-25T05:57:59.527Z,5.38
2023-05-25T05:58:59.865Z,4.64
2023-05-25T05:59:59.503Z,5.32
2023-05-25T06:01:04.089Z,4.81
2023-05-25T06:02:12.005Z,5.48
2023-05-25T06:02:56.565Z,4.23
2023-05-25T06:03:59.926Z,5.13
2023-05-25T06:04:56.316Z,4.82
2023-05-25T06:07:03.760Z,4.99
2023-05-25T06:07:56.328Z,4.76
2023-05-25T06:08:56.322Z,5.06
2023-05-25T06:10:59.555Z,4.65
2023-05-25T06:11:59.570Z,5.08
2023-05-25T06:12:56.339Z,5.06
2023-05-25T06:13:56.365Z,5.03
2023-05-25T06:15:12.083Z,5.32
2023-05-25T06:15:59.595Z,4.74
2023-05-25T06:16:56.717Z,5.39
2023-05-25T06:17:56.412Z,4.63
2023-05-25T06:18:56.400Z,4.63
2023-05-25T06:20:03.886Z,4.31
2023-05-25T06:21:03.819Z,4.79
2023-05-25T06:22:03.882Z,4.83
2023-05-25T06:23:03.923Z,4.71
2023-05-25T06:23:56.652Z,4.76
2023-05-25T06:25:12.097Z,4.93
2023-05-25T06:25:56.472Z,5.01
2023-05-25T06:26:57.463Z,5.49
2023-05-25T06:27:56.493Z,5.06
2023-05-25T06:29:59.691Z,5.65
2023-05-25T06:30:56.506Z,4.85
2023-05-25T06:31:56.712Z,4.89
2023-05-25T06:32:56.514Z,5.70
2023-05-25T06:33:56.543Z,5.69
2023-05-25T06:34:56.520Z,5.56
2023-05-25T06:35:58.250Z,4.85
2023-05-25T06:36:56.543Z,5.41
2023-05-25T06:37:56.537Z,5.18
2023-05-25T06:38:56.659Z,5.10
2023-05-25T06:39:57.791Z,5.17
2023-05-25T06:40:57.665Z,5.52
2023-05-25T06:41:57.722Z,5.04
2023-05-25T06:43:03.986Z,4.77
2023-05-25T06:43:56.671Z,4.88
2023-05-25T06:44:56.608Z,5.38
2023-05-25T06:45:56.817Z,5.05
2023-05-25T06:46:56.617Z,4.92
2023-05-25T06:47:56.654Z,5.54
2023-05-25T06:48:56.668Z,5.28
2023-05-25T06:49:56.668Z,4.96
2023-05-25T06:50:56.636Z,5.42
2023-05-25T06:51:56.683Z,5.29
2023-05-25T06:53:12.317Z,4.95
2023-05-25T06:53:59.867Z,4.98
2023-05-25T06:54:59.875Z,5.16
2023-05-25T06:55:56.673Z,5.93
2023-05-25T06:56:56.670Z,5.09
2023-05-25T06:57:56.692Z,5.01
2023-05-25T06:59:00.375Z,5.15
2023-05-25T06:59:56.692Z,5.72
2023-05-25T07:00:56.677Z,4.81
2023-05-25T07:01:56.704Z,5.02
2023-05-25T07:02:56.695Z,5.33
2023-05-25T07:03:57.167Z,4.88
2023-05-25T07:04:56.719Z,4.87
2023-05-25T07:05:56.709Z,5.44
2023-05-25T07:07:04.165Z,5.22
2023-05-25T07:07:56.720Z,5.26
2023-05-25T07:08:56.733Z,5.50
2023-05-25T07:09:56.720Z,4.82
2023-05-25T07:10:56.714Z,5.23
2023-05-25T07:11:56.727Z,5.29
2023-05-25T07:12:57.678Z,5.67
2023-05-25T07:13:56.725Z,4.60
2023-05-25T07:14:56.753Z,5.02
2023-05-25T07:16:12.390Z,5.14
2023-05-25T07:16:56.745Z,5.10
2023-05-25T07:17:56.893Z,5.34
2023-05-25T07:18:57.494Z,4.93
2023-05-25T07:19:56.799Z,4.70
2023-05-25T07:20:56.772Z,5.74
2023-05-25T07:21:56.818Z,4.80
2023-05-25T07:22:58.700Z,5.78
2023-05-25T07:23:59.978Z,4.99
2023-05-25T07:24:56.855Z,5.48
2023-05-25T07:25:57.183Z,4.82
2023-05-25T07:26:56.792Z,5.00
2023-05-25T07:28:04.190Z,5.22
2023-05-25T07:28:58.199Z,5.21
2023-05-25T07:29:56.806Z,4.87
2023-05-25T07:30:56.831Z,4.88
2023-05-25T07:31:56.841Z,4.87
2023-05-25T07:32:56.917Z,4.44
2023-05-25T07:33:58.703Z,4.49
2023-05-25T07:34:57.822Z,5.40
2023-05-25T07:36:12.506Z,5.06
2023-05-25T07:37:12.641Z,5.13
2023-05-25T07:37:56.849Z,4.25
2023-05-25T07:39:00.411Z,4.85
2023-05-25T07:40:04.254Z,4.92
2023-05-25T07:41:00.118Z,5.03
2023-05-25T07:41:56.858Z,5.18
2023-05-25T07:42:57.210Z,5.57
2023-05-25T07:43:56.869Z,4.42
2023-05-25T07:44:56.869Z,5.02
2023-05-25T07:45:56.883Z,5.19
2023-05-25T07:46:56.959Z,4.91
2023-05-25T07:47:57.263Z,4.90
2023-05-25T07:49:12.498Z,5.41
2023-05-25T07:49:57.898Z,4.95
2023-05-25T07:50:56.960Z,4.35
2023-05-25T07:51:56.927Z,4.80
2023-05-25T07:52:57.202Z,5.17
2023-05-25T07:53:56.892Z,4.41
2023-05-25T07:54:56.956Z,4.84
2023-05-25T07:55:56.907Z,5.00
2023-05-25T07:57:04.310Z,5.11
2023-05-25T07:57:57.209Z,4.93
2023-05-25T07:58:56.926Z,4.69
2023-05-25T08:00:00.205Z,4.96
2023-05-25T08:00:57.228Z,4.91
2023-05-25T08:01:57.035Z,5.14
2023-05-25T08:02:57.092Z,5.39
2023-05-25T08:03:57.023Z,4.25
2023-05-25T08:04:57.231Z,5.01
2023-05-25T08:05:56.928Z,4.85
2023-05-25T08:06:56.950Z,4.10
2023-05-25T08:07:57.207Z,4.61
2023-05-25T08:08:57.200Z,4.30
2023-05-25T08:09:56.964Z,4.42
2023-05-25T08:10:58.250Z,4.87
2023-05-25T08:12:07.634Z,4.55
2023-05-25T08:12:58.338Z,4.83
2023-05-25T08:13:57.204Z,4.62
2023-05-25T08:14:57.147Z,3.88
2023-05-25T08:15:57.145Z,4.28
2023-05-25T08:16:57.216Z,4.42
2023-05-25T08:17:57.234Z,4.19
2023-05-25T08:18:57.147Z,5.05
2023-05-25T08:19:57.149Z,4.15
2023-05-25T08:20:57.152Z,4.93
2023-05-25T08:21:57.147Z,4.07
2023-05-25T08:22:57.189Z,4.38
2023-05-25T08:23:57.206Z,4.09
2023-05-25T08:24:57.173Z,4.90
2023-05-25T08:25:57.163Z,4.65
2023-05-25T08:26:57.207Z,4.03
2023-05-25T08:27:57.202Z,4.29
2023-05-25T08:28:57.173Z,4.40
2023-05-25T08:29:57.185Z,4.77
2023-05-25T08:30:57.213Z,4.30
2023-05-25T08:31:57.200Z,4.42
2023-05-25T08:32:57.325Z,4.64
2023-05-25T08:33:57.706Z,4.37
2023-05-25T08:34:57.691Z,4.55
2023-05-25T08:35:57.699Z,4.27
2023-05-25T08:36:57.706Z,4.18
2023-05-25T08:37:58.204Z,4.37
2023-05-25T08:38:58.203Z,4.56
2023-05-25T08:39:57.703Z,4.66
2023-05-25T08:41:00.886Z,4.18
2023-05-25T08:41:57.712Z,4.52
2023-05-25T08:42:57.734Z,4.54
2023-05-25T08:43:58.209Z,4.62
2023-05-25T08:44:57.705Z,4.18
2023-05-25T08:46:02.439Z,4.24
2023-05-25T08:46:59.770Z,4.00
2023-05-25T08:47:57.781Z,4.25
2023-05-25T08:48:58.405Z,4.26
2023-05-25T08:49:57.737Z,4.37
2023-05-25T08:50:57.711Z,4.34
2023-05-25T08:51:58.210Z,4.62
2023-05-25T08:52:57.726Z,4.36
2023-05-25T08:53:57.713Z,4.31
2023-05-25T08:54:57.721Z,4.28
2023-05-25T08:55:57.662Z,4.55
2023-05-25T08:56:57.711Z,4.21
2023-05-25T08:57:57.714Z,4.04
2023-05-25T08:58:58.004Z,4.32
2023-05-25T08:59:57.723Z,4.20
2023-05-25T09:00:58.216Z,4.57
2023-05-25T09:01:57.889Z,3.60
2023-05-25T09:02:57.992Z,3.51
2023-05-25T09:03:57.972Z,3.95
2023-05-25T09:04:57.985Z,4.35
2023-05-25T09:05:58.217Z,4.19
2023-05-25T09:07:09.629Z,4.37
2023-05-25T09:07:58.098Z,3.62
2023-05-25T09:08:58.092Z,4.54
2023-05-25T09:09:58.828Z,4.31
2023-05-25T09:10:58.223Z,4.19
2023-05-25T09:11:58.653Z,3.63
2023-05-25T09:12:58.240Z,3.91
2023-05-25T09:13:58.102Z,4.48
2023-05-25T09:14:58.114Z,4.55
2023-05-25T09:15:58.196Z,3.81
2023-05-25T09:16:58.153Z,3.93
2023-05-25T09:17:58.360Z,4.48
2023-05-25T09:18:58.087Z,3.59
2023-05-25T09:19:58.140Z,3.73
2023-05-25T09:20:58.331Z,3.88
2023-05-25T09:22:10.681Z,4.26
2023-05-25T09:22:58.222Z,4.14
2023-05-25T09:23:58.087Z,3.62
2023-05-25T09:24:58.099Z,4.04
2023-05-25T09:25:58.219Z,3.70
2023-05-25T09:26:58.105Z,4.01
2023-05-25T09:27:58.128Z,3.34
2023-05-25T09:28:58.098Z,4.44
2023-05-25T09:29:59.293Z,3.92
2023-05-25T09:31:05.536Z,3.96
2023-05-25T09:31:58.112Z,4.93
2023-05-25T09:32:58.154Z,3.88
2023-05-25T09:33:58.106Z,4.62
2023-05-25T09:35:13.974Z,3.96
2023-05-25T09:35:59.097Z,4.65
2023-05-25T09:37:01.651Z,3.91
2023-05-25T09:37:58.240Z,4.37
2023-05-25T09:38:58.700Z,4.12
2023-05-25T09:39:58.098Z,4.70
2023-05-25T09:40:58.105Z,3.97
2023-05-25T09:41:58.258Z,3.65
2023-05-25T09:42:58.114Z,4.12
2023-05-25T09:44:10.408Z,4.03
2023-05-25T09:44:58.093Z,3.91
2023-05-25T09:46:01.327Z,3.90
2023-05-25T09:46:58.335Z,3.90
2023-05-25T09:47:58.268Z,4.94
2023-05-25T09:48:58.104Z,3.89
2023-05-25T09:49:58.073Z,4.83
2023-05-25T09:50:58.302Z,4.06
2023-05-25T09:51:58.103Z,4.51
2023-05-25T09:53:01.305Z,4.09
2023-05-25T09:54:13.892Z,3.85
2023-05-25T09:54:59.058Z,4.33
2023-05-25T09:55:58.077Z,3.71
2023-05-25T09:56:58.781Z,3.91
2023-05-25T09:57:58.060Z,3.71
2023-05-25T09:58:58.306Z,3.72
2023-05-25T09:59:58.072Z,4.14
2023-05-25T10:00:58.119Z,4.14
2023-05-25T10:01:58.172Z,4.03
2023-05-25T10:02:59.370Z,3.90
2023-05-25T10:04:04.105Z,3.69
2023-05-25T10:04:58.615Z,3.78
2023-05-25T10:05:58.290Z,3.53
2023-05-25T10:06:58.155Z,4.18
2023-05-25T10:07:58.309Z,3.66
2023-05-25T10:08:58.154Z,3.35
2023-05-25T10:09:58.251Z,3.53
2023-05-25T10:11:05.500Z,3.79
2023-05-25T10:11:58.086Z,3.71
2023-05-25T10:12:58.055Z,3.70
2023-05-25T10:13:58.309Z,3.84
2023-05-25T10:14:58.023Z,3.77
2023-05-25T10:15:58.189Z,3.23
2023-05-25T10:16:58.039Z,3.39
2023-05-25T10:17:58.108Z,3.54
2023-05-25T10:18:58.295Z,3.99
2023-05-25T10:19:58.025Z,3.12
2023-05-25T10:20:58.723Z,3.25
2023-05-25T10:22:01.210Z,3.92
2023-05-25T10:22:58.016Z,4.11
2023-05-25T10:23:57.983Z,3.96
2023-05-25T10:24:58.290Z,3.37
2023-05-25T10:25:57.961Z,3.93
2023-05-25T10:26:57.962Z,3.72
2023-05-25T10:27:59.581Z,2.99
2023-05-25T10:28:58.781Z,3.88
2023-05-25T10:29:57.967Z,3.57
2023-05-25T10:30:58.270Z,3.67
2023-05-25T10:31:58.021Z,3.66
2023-05-25T10:32:58.982Z,3.75
2023-05-25T10:33:58.264Z,3.89
2023-05-25T10:34:57.927Z,3.15
2023-05-25T10:36:56.886Z,3.47
2023-05-25T10:37:57.870Z,3.41
2023-05-25T10:38:58.437Z,3.80
2023-05-25T10:39:57.939Z,3.24
2023-05-25T10:40:58.258Z,3.82
2023-05-25T10:41:57.862Z,3.56
2023-05-25T10:42:57.870Z,3.46
2023-05-25T10:43:58.255Z,3.46
2023-05-25T10:44:57.956Z,3.30
2023-05-25T10:45:57.997Z,3.89
2023-05-25T10:46:59.074Z,3.75
2023-05-25T10:47:58.186Z,3.12
2023-05-25T10:48:58.251Z,3.38
2023-05-25T10:49:58.274Z,3.78
2023-05-25T10:50:58.215Z,3.49
2023-05-25T10:51:58.225Z,3.34
2023-05-25T10:52:58.263Z,3.19
2023-05-25T10:53:58.301Z,3.36
2023-05-25T10:54:58.754Z,3.60
2023-05-25T10:55:58.764Z,3.87
2023-05-25T10:56:58.405Z,3.08
2023-05-25T10:57:58.450Z,3.36
2023-05-25T10:58:58.487Z,3.47
2023-05-25T10:59:59.256Z,3.84
2023-05-25T11:00:58.857Z,3.45
2023-05-25T11:01:58.650Z,3.44
2023-05-25T11:02:58.698Z,3.34
2023-05-25T11:03:58.661Z,3.39
2023-05-25T11:04:58.698Z,3.26
2023-05-25T11:06:01.987Z,3.91
2023-05-25T11:06:58.735Z,3.60
2023-05-25T11:07:58.730Z,3.40
2023-05-25T11:08:58.733Z,3.34
2023-05-25T11:09:58.779Z,3.68
2023-05-25T11:10:58.709Z,4.15
2023-05-25T11:11:58.733Z,3.47
2023-05-25T11:12:58.744Z,3.42
2023-05-25T11:13:58.763Z,3.48
2023-05-25T11:14:58.731Z,3.56
2023-05-25T11:15:58.741Z,3.69
2023-05-25T11:16:58.720Z,3.68
2023-05-25T11:17:58.719Z,4.17
2023-05-25T11:18:58.767Z,4.01
2023-05-25T11:19:58.752Z,3.78
2023-05-25T11:20:58.714Z,3.41
2023-05-25T11:21:58.731Z,3.50
2023-05-25T11:22:58.700Z,3.42
2023-05-25T11:23:58.727Z,3.31
2023-05-25T11:24:58.672Z,3.49
2023-05-25T11:25:58.672Z,3.64
2023-05-25T11:26:58.658Z,3.72
2023-05-25T11:27:58.656Z,3.54
2023-05-25T11:28:58.657Z,3.43
2023-05-25T11:29:58.645Z,2.80
2023-05-25T11:30:58.655Z,3.32
2023-05-25T11:31:58.809Z,3.79
2023-05-25T11:32:58.708Z,3.57
2023-05-25T11:33:58.637Z,3.29
2023-05-25T11:35:02.014Z,3.68
2023-05-25T11:35:58.611Z,3.71
2023-05-25T11:36:58.615Z,3.33
2023-05-25T11:37:58.654Z,3.37
2023-05-25T11:39:57.776Z,3.67
2023-05-25T11:40:58.600Z,3.31
2023-05-25T11:41:58.605Z,3.39
2023-05-25T11:42:59.277Z,3.31
2023-05-25T11:43:59.050Z,3.66
2023-05-25T11:44:58.593Z,3.17
2023-05-25T11:45:58.618Z,3.56
2023-05-25T11:46:58.632Z,3.23
2023-05-25T11:47:58.577Z,3.25
2023-05-25T11:48:58.567Z,3.78
2023-05-25T11:49:58.779Z,3.02
2023-05-25T11:50:58.548Z,3.05
2023-05-25T11:51:58.545Z,3.64
2023-05-25T11:52:58.548Z,3.43
2023-05-25T11:53:58.574Z,3.85
2023-05-25T11:54:58.526Z,3.52
2023-05-25T11:56:07.561Z,3.51
2023-05-25T11:56:58.512Z,3.47
2023-05-25T11:57:59.578Z,3.56
2023-05-25T11:58:58.555Z,3.27
2023-05-25T11:59:58.512Z,3.38
2023-05-25T12:00:58.513Z,2.55
2023-05-25T12:01:58.495Z,3.40
2023-05-25T12:02:58.560Z,2.95
2023-05-25T12:03:59.163Z,3.58
2023-05-25T12:04:58.585Z,3.16
2023-05-25T12:05:58.467Z,3.14
2023-05-25T12:06:58.506Z,3.57
2023-05-25T12:07:58.516Z,2.96
2023-05-25T12:08:58.782Z,3.44
2023-05-25T12:09:58.599Z,3.05
2023-05-25T12:10:58.675Z,3.43
2023-05-25T12:11:58.952Z,3.39
2023-05-25T12:12:58.650Z,3.06
2023-05-25T12:13:58.683Z,3.41
2023-05-25T12:14:59.140Z,3.23
2023-05-25T12:15:58.795Z,3.26
2023-05-25T12:16:57.958Z,2.58
2023-05-25T12:17:58.784Z,2.78
2023-05-25T12:18:58.747Z,2.88
2023-05-25T12:19:58.834Z,3.17
2023-05-25T12:20:58.770Z,3.26
2023-05-25T12:21:58.719Z,3.74
2023-05-25T12:22:58.714Z,3.06
2023-05-25T12:23:58.714Z,2.98
2023-05-25T12:24:58.791Z,3.20
2023-05-25T12:25:58.742Z,3.28
2023-05-25T12:26:58.730Z,2.96
2023-05-25T12:27:58.695Z,2.79
2023-05-25T12:28:58.693Z,3.35
2023-05-25T12:29:58.735Z,2.94
2023-05-25T12:30:58.721Z,3.50
2023-05-25T12:31:58.677Z,3.22
2023-05-25T12:33:00.969Z,3.38
2023-05-25T12:33:58.663Z,3.16
2023-05-25T12:34:58.695Z,3.33
2023-05-25T12:35:58.658Z,3.28
2023-05-25T12:36:58.651Z,3.21
2023-05-25T12:37:58.696Z,3.39
2023-05-25T12:38:58.628Z,2.79
2023-05-25T12:40:00.245Z,3.28
2023-05-25T12:40:58.629Z,3.26
2023-05-25T12:41:58.651Z,2.74
2023-05-25T12:42:58.675Z,3.05
2023-05-25T12:43:58.614Z,3.22
2023-05-25T12:44:58.796Z,3.03
2023-05-25T12:45:58.689Z,3.40
2023-05-25T12:46:58.896Z,3.46
2023-05-25T12:48:00.022Z,2.99
2023-05-25T12:48:58.595Z,3.90
2023-05-25T12:49:58.795Z,2.86
2023-05-25T12:50:58.595Z,3.59
2023-05-25T12:51:58.588Z,3.06
2023-05-25T12:52:58.586Z,3.10
2023-05-25T12:53:58.580Z,3.15
2023-05-25T12:54:58.574Z,3.64
2023-05-25T12:55:58.572Z,3.29
2023-05-25T12:56:58.828Z,2.90
2023-05-25T12:57:58.616Z,2.86
2023-05-25T12:58:58.562Z,2.62
2023-05-25T12:59:58.803Z,2.91
2023-05-25T13:00:58.555Z,2.88
2023-05-25T13:01:58.641Z,2.78
2023-05-25T13:02:58.598Z,3.14
2023-05-25T13:03:58.575Z,2.96
2023-05-25T13:04:58.943Z,3.21
2023-05-25T13:05:58.903Z,3.24
2023-05-25T13:06:58.866Z,2.61
2023-05-25T13:07:58.878Z,2.89
2023-05-25T13:08:59.315Z,2.87
2023-05-25T13:09:59.346Z,2.76
2023-05-25T13:10:58.891Z,3.13
2023-05-25T13:11:58.865Z,3.07
2023-05-25T13:12:58.940Z,2.95
2023-05-25T13:13:58.906Z,3.14
2023-05-25T13:14:58.873Z,3.03
2023-05-25T13:15:58.915Z,2.64
2023-05-25T13:16:58.932Z,3.44
2023-05-25T13:17:59.137Z,3.32
2023-05-25T13:18:58.871Z,3.54
2023-05-25T13:19:58.978Z,2.93
2023-05-25T13:20:59.266Z,3.15
2023-05-25T13:21:58.885Z,2.51
2023-05-25T13:22:58.885Z,3.08
2023-05-25T13:23:58.885Z,2.91
2023-05-25T13:24:58.883Z,3.22